createdAt,value
2019-05-25T00:00:33.957Z,15.79
2019-05-25T00:03:05.982Z,15.78
2019-05-25T00:05:38.456Z,15.76
2019-05-25T00:08:10.869Z,15.85
2019-05-25T00:10:42.842Z,15.86
2019-05-25T00:13:15.209Z,15.78
2019-05-25T00:15:47.813Z,15.80
2019-05-25T00:18:20.296Z,15.74
2019-05-25T00:20:53.198Z,15.71
2019-05-25T00:23:26.010Z,15.61
2019-05-25T00:25:58.658Z,15.52
2019-05-25T00:28:30.767Z,15.50
2019-05-25T00:31:02.932Z,15.49
2019-05-25T00:33:35.879Z,15.51
2019-05-25T00:36:08.515Z,15.52
2019-05-25T00:38:41.205Z,15.51
2019-05-25T00:41:13.747Z,15.43
2019-05-25T00:43:47.316Z,15.41
2019-05-25T00:46:19.795Z,15.38
2019-05-25T00:48:52.612Z,15.35
2019-05-25T00:51:25.103Z,15.35
2019-05-25T00:53:57.080Z,15.36
2019-05-25T00:56:29.318Z,15.33
2019-05-25T00:59:01.983Z,15.34
2019-05-25T01:01:34.471Z,15.32
2019-05-25T01:04:07.488Z,15.34
2019-05-25T01:06:40.052Z,15.37
2019-05-25T01:09:11.930Z,15.37
2019-05-25T01:11:44.062Z,15.34
2019-05-25T01:14:16.959Z,15.32
2019-05-25T01:16:49.356Z,15.25
2019-05-25T01:19:22.323Z,15.26
2019-05-25T01:21:54.988Z,15.30
2019-05-25T01:24:42.881Z,15.26
2019-05-25T01:27:01.987Z,15.26
2019-05-25T01:29:34.616Z,15.21
2019-05-25T01:32:06.997Z,15.23
2019-05-25T01:34:39.962Z,15.23
2019-05-25T01:37:12.601Z,15.29
2019-05-25T01:39:44.489Z,15.36
2019-05-25T01:42:16.731Z,15.40
2019-05-25T01:44:49.555Z,15.49
2019-05-25T01:47:21.984Z,15.54
2019-05-25T01:49:54.777Z,15.58
2019-05-25T01:52:27.251Z,15.56
2019-05-25T01:55:00.606Z,15.62
2019-05-25T01:57:33.257Z,15.64
2019-05-25T02:00:07.480Z,15.63
2019-05-25T02:02:40.418Z,15.65
2019-05-25T02:05:13.311Z,15.57
2019-05-25T02:07:45.888Z,15.57
2019-05-25T02:10:18.493Z,15.53
2019-05-25T02:12:51.140Z,15.46
2019-05-25T02:15:22.945Z,15.42
2019-05-25T02:17:55.161Z,15.39
2019-05-25T02:20:27.818Z,15.48
2019-05-25T02:23:00.315Z,15.52
2019-05-25T02:25:33.059Z,15.54
2019-05-25T02:28:05.828Z,15.55
2019-05-25T02:30:38.291Z,15.63
2019-05-25T02:33:11.232Z,15.73
2019-05-25T02:35:43.822Z,15.79
2019-05-25T02:38:17.270Z,15.82
2019-05-25T02:40:49.844Z,15.92
2019-05-25T02:43:22.526Z,15.92
2019-05-25T02:45:55.156Z,15.93
2019-05-25T02:48:27.828Z,16.02
2019-05-25T02:51:00.154Z,15.99
2019-05-25T02:53:32.918Z,16.04
2019-05-25T02:56:05.425Z,16.21
2019-05-25T02:58:38.499Z,16.29
2019-05-25T03:01:10.925Z,16.18
2019-05-25T03:03:43.622Z,16.24
2019-05-25T03:06:18.442Z,16.27
2019-05-25T03:08:51.007Z,16.33
2019-05-25T03:11:22.799Z,16.36
2019-05-25T03:13:55.839Z,16.50
2019-05-25T03:16:28.535Z,16.57
2019-05-25T03:19:01.106Z,16.70
2019-05-25T03:21:33.103Z,16.62
2019-05-25T03:24:06.480Z,16.54
2019-05-25T03:26:39.558Z,16.66
2019-05-25T03:29:11.935Z,16.65
2019-05-25T03:31:44.860Z,16.75
2019-05-25T03:34:17.185Z,16.75
2019-05-25T03:36:49.815Z,16.97
2019-05-25T03:39:22.197Z,16.84
2019-05-25T03:41:55.199Z,17.05
2019-05-25T03:44:30.769Z,17.10
2019-05-25T03:47:03.610Z,17.36
2019-05-25T03:49:36.033Z,17.53
2019-05-25T03:52:08.729Z,17.70
2019-05-25T03:54:41.092Z,17.99
2019-05-25T03:57:14.274Z,18.19
2019-05-25T03:59:47.118Z,18.70
2019-05-25T04:02:19.785Z,19.16
2019-05-25T04:04:52.520Z,20.70
2019-05-25T04:07:25.222Z,22.62
2019-05-25T04:09:57.580Z,23.31
2019-05-25T04:12:30.258Z,24.47
2019-05-25T04:15:03.336Z,24.93
2019-05-25T04:17:35.760Z,24.34
2019-05-25T04:20:09.415Z,23.70
2019-05-25T04:22:41.698Z,22.84
2019-05-25T04:25:15.586Z,22.25
2019-05-25T04:27:48.418Z,21.16
2019-05-25T04:30:21.529Z,21.76
2019-05-25T04:32:53.941Z,22.92
2019-05-25T04:35:26.435Z,23.21
2019-05-25T04:37:59.745Z,22.83
2019-05-25T04:40:32.595Z,22.09
2019-05-25T04:43:05.271Z,21.78
2019-05-25T04:45:37.999Z,21.33
2019-05-25T04:48:10.330Z,21.84
2019-05-25T04:50:42.837Z,23.77
2019-05-25T04:53:15.294Z,25.10
2019-05-25T04:55:48.201Z,24.58
2019-05-25T04:58:20.921Z,24.40
2019-05-25T05:00:53.855Z,23.60
2019-05-25T05:03:26.521Z,22.85
2019-05-25T05:05:59.440Z,21.89
2019-05-25T05:08:35.628Z,21.24
2019-05-25T05:11:08.402Z,20.52
2019-05-25T05:13:43.602Z,19.73
2019-05-25T05:16:16.752Z,19.23
2019-05-25T05:18:50.543Z,18.95
2019-05-25T05:21:23.933Z,18.73
2019-05-25T05:24:06.150Z,18.54
2019-05-25T05:26:54.824Z,18.37
2019-05-25T05:29:16.255Z,18.16
2019-05-25T05:31:48.827Z,17.23
2019-05-25T05:34:21.445Z,16.58
2019-05-25T05:36:54.702Z,16.38
2019-05-25T05:39:28.487Z,16.36
2019-05-25T05:42:02.872Z,16.25
2019-05-25T05:44:37.088Z,16.10
2019-05-25T05:47:11.649Z,16.07
2019-05-25T05:49:45.532Z,15.99
2019-05-25T05:52:20.632Z,15.74
2019-05-25T05:54:54.297Z,15.82
2019-05-25T05:57:27.142Z,15.89
2019-05-25T05:59:59.770Z,15.98
2019-05-25T06:02:32.457Z,16.11
2019-05-25T06:05:05.650Z,15.82
2019-05-25T06:07:38.205Z,15.09
2019-05-25T06:10:10.645Z,15.17
2019-05-25T06:12:43.159Z,15.06
2019-05-25T06:15:15.850Z,15.21
2019-05-25T06:17:48.652Z,15.57
2019-05-25T06:20:21.347Z,15.86
2019-05-25T06:22:53.995Z,16.00
2019-05-25T06:25:26.553Z,16.21
2019-05-25T06:27:59.349Z,16.38
2019-05-25T06:30:31.881Z,16.43
2019-05-25T06:33:04.549Z,16.62
2019-05-25T06:35:37.098Z,16.62
2019-05-25T06:38:10.025Z,16.74
2019-05-25T06:40:44.082Z,16.88
2019-05-25T06:43:16.735Z,16.89
2019-05-25T06:45:49.154Z,17.00
2019-05-25T06:48:21.972Z,17.03
2019-05-25T06:50:54.690Z,17.20
2019-05-25T06:53:27.335Z,17.24
2019-05-25T06:55:59.871Z,17.46
2019-05-25T06:58:32.345Z,17.79
2019-05-25T07:01:05.104Z,17.97
2019-05-25T07:03:37.774Z,18.09
2019-05-25T07:06:10.487Z,18.20
2019-05-25T07:08:42.921Z,18.44
2019-05-25T07:11:15.555Z,18.11
2019-05-25T07:13:48.190Z,18.14
2019-05-25T07:16:20.892Z,18.40
2019-05-25T07:18:53.757Z,18.62
2019-05-25T07:21:26.761Z,19.54
2019-05-25T07:23:59.549Z,20.07
2019-05-25T07:26:32.101Z,20.33
2019-05-25T07:29:04.892Z,20.66
2019-05-25T07:31:37.441Z,20.43
2019-05-25T07:34:10.163Z,20.33
2019-05-25T07:36:42.804Z,21.58
2019-05-25T07:39:15.486Z,21.80
2019-05-25T07:41:48.189Z,22.03
2019-05-25T07:44:20.614Z,22.46
